Main page
METAR-TAF:

METAR-TAF

Airports :

Spencer Municipal Airport

Spencer, Iowa, United States

latitude: 43-09-56N, longitude: 095-12-10W, elevation: 1338 ft

Current weather observation

The report was made 16 minutes ago, at 03:53 UTC
Wind 9 mph from the North
Temperature 66°F
Humidity 88%
Pressure 29.87 in. Hg
Visibility: 4 miles
Scattered clouds at a height of 2600 ft
Broken clouds at a height of 4400 ft
Overcast at a height of 6500 ft
mist

METAR: KSPW 260353Z AUTO 01008KT 4SM BR SCT026 BKN044 OVC065 19/17 A2987 RMK AO2 SLP108 T01890167

Time: 23:09 (04:09 UTC)


TAF: missing

Weather observations and forecasts of more than 4000 airports (METAR and TAF reports).

The available stations are represented by yellow and red dots on the map.

Hover mouse over dot to see the name of the station.

Then click to see weather observations and forecasts.

To change the map : click on the green buttons with a black cross to zoom in, on the green button with a dash to zoom out, or on the green arrows for adjacent maps.


METAR-TAF: